sensor_id;sensor_type;location;lat;lon;timestamp;pressure;altitude;pressure_sealevel;temperature;humidity
10342;BME280;5216;54.602;18.356;2024-03-06T00:00:12;102177.97;;;7.60;70.49
10342;BME280;5216;54.602;18.356;2024-03-06T00:02:39;102173.50;;;7.60;70.71
10342;BME280;5216;54.602;18.356;2024-03-06T00:05:06;102187.56;;;7.62;70.79
10342;BME280;5216;54.602;18.356;2024-03-06T00:07:35;102189.31;;;7.63;70.36
10342;BME280;5216;54.602;18.356;2024-03-06T00:10:02;102190.22;;;7.62;70.49
10342;BME280;5216;54.602;18.356;2024-03-06T00:12:31;102182.25;;;7.62;70.41
10342;BME280;5216;54.602;18.356;2024-03-06T00:14:58;102193.69;;;7.64;70.16
10342;BME280;5216;54.602;18.356;2024-03-06T00:17:25;102184.00;;;7.63;70.42
10342;BME280;5216;54.602;18.356;2024-03-06T00:19:51;102191.91;;;7.65;70.63
10342;BME280;5216;54.602;18.356;2024-03-06T00:22:18;102198.06;;;7.65;70.29
10342;BME280;5216;54.602;18.356;2024-03-06T00:24:48;102202.44;;;7.66;70.32
10342;BME280;5216;54.602;18.356;2024-03-06T00:27:15;102199.78;;;7.66;70.29
10342;BME280;5216;54.602;18.356;2024-03-06T00:29:42;102202.38;;;7.68;70.04
10342;BME280;5216;54.602;18.356;2024-03-06T00:32:09;102198.84;;;7.67;69.88
10342;BME280;5216;54.602;18.356;2024-03-06T00:34:36;102209.41;;;7.69;69.92
10342;BME280;5216;54.602;18.356;2024-03-06T00:37:03;102204.16;;;7.67;70.00
10342;BME280;5216;54.602;18.356;2024-03-06T00:39:30;102204.94;;;7.69;69.63
10342;BME280;5216;54.602;18.356;2024-03-06T00:41:56;102213.84;;;7.68;69.95
10342;BME280;5216;54.602;18.356;2024-03-06T00:44:23;102202.38;;;7.68;69.60
10342;BME280;5216;54.602;18.356;2024-03-06T00:46:50;102220.91;;;7.69;69.86
10342;BME280;5216;54.602;18.356;2024-03-06T00:49:17;102215.41;;;7.72;69.66
10342;BME280;5216;54.602;18.356;2024-03-06T00:51:43;102212.75;;;7.72;69.19
10342;BME280;5216;54.602;18.356;2024-03-06T00:54:15;102228.59;;;7.75;69.09
10342;BME280;5216;54.602;18.356;2024-03-06T00:56:43;102220.66;;;7.73;68.99
10342;BME280;5216;54.602;18.356;2024-03-06T00:59:10;102222.31;;;7.76;69.13
10342;BME280;5216;54.602;18.356;2024-03-06T01:01:37;102232.03;;;7.77;68.67
10342;BME280;5216;54.602;18.356;2024-03-06T01:04:04;102228.50;;;7.76;68.69
10342;BME280;5216;54.602;18.356;2024-03-06T01:06:31;102224.03;;;7.77;68.99
10342;BME280;5216;54.602;18.356;2024-03-06T01:08:58;102238.28;;;7.76;68.76
10342;BME280;5216;54.602;18.356;2024-03-06T01:11:25;102232.88;;;7.77;68.79
10342;BME280;5216;54.602;18.356;2024-03-06T01:13:55;102236.38;;;7.78;68.62
10342;BME280;5216;54.602;18.356;2024-03-06T01:16:22;102241.72;;;7.78;68.39
10342;BME280;5216;54.602;18.356;2024-03-06T01:18:48;102236.38;;;7.78;68.35
10342;BME280;5216;54.602;18.356;2024-03-06T01:21:15;102239.94;;;7.78;68.32
10342;BME280;5216;54.602;18.356;2024-03-06T01:23:42;102246.97;;;7.79;68.06
10342;BME280;5216;54.602;18.356;2024-03-06T01:26:10;102243.44;;;7.79;67.92
10342;BME280;5216;54.602;18.356;2024-03-06T01:28:38;102239.81;;;7.80;68.26
10342;BME280;5216;54.602;18.356;2024-03-06T01:31:05;102246.09;;;7.79;67.73
10342;BME280;5216;54.602;18.356;2024-03-06T01:33:33;102248.78;;;7.79;68.12
10342;BME280;5216;54.602;18.356;2024-03-06T01:36:00;102251.34;;;7.80;68.10
10342;BME280;5216;54.602;18.356;2024-03-06T01:38:26;102247.81;;;7.80;67.92
10342;BME280;5216;54.602;18.356;2024-03-06T01:40:53;102253.13;;;7.80;67.56
10342;BME280;5216;54.602;18.356;2024-03-06T01:43:24;102252.22;;;7.81;67.57
10342;BME280;5216;54.602;18.356;2024-03-06T01:45:52;102254.09;;;7.79;67.42
10342;BME280;5216;54.602;18.356;2024-03-06T01:48:27;102256.69;;;7.80;67.30
10342;BME280;5216;54.602;18.356;2024-03-06T01:50:56;102266.44;;;7.80;66.99
10342;BME280;5216;54.602;18.356;2024-03-06T01:53:24;102256.69;;;7.80;66.98
10342;BME280;5216;54.602;18.356;2024-03-06T01:55:54;102266.44;;;7.80;67.18
10342;BME280;5216;54.602;18.356;2024-03-06T01:58:21;102264.66;;;7.80;66.78
10342;BME280;5216;54.602;18.356;2024-03-06T02:00:49;102267.34;;;7.80;66.74
10342;BME280;5216;54.602;18.356;2024-03-06T02:03:18;102264.66;;;7.80;66.43
10342;BME280;5216;54.602;18.356;2024-03-06T02:05:48;102268.19;;;7.81;66.25
10342;BME280;5216;54.602;18.356;2024-03-06T02:08:15;102279.69;;;7.81;66.41
10342;BME280;5216;54.602;18.356;2024-03-06T02:10:44;102269.09;;;7.80;66.23
10342;BME280;5216;54.602;18.356;2024-03-06T02:13:12;102273.66;;;7.78;66.60
10342;BME280;5216;54.602;18.356;2024-03-06T02:15:40;102275.31;;;7.80;66.09
10342;BME280;5216;54.602;18.356;2024-03-06T02:18:07;102271.75;;;7.80;66.01
10342;BME280;5216;54.602;18.356;2024-03-06T02:20:38;102277.09;;;7.80;66.41
10342;BME280;5216;54.602;18.356;2024-03-06T02:23:05;102272.72;;;7.79;66.12
10342;BME280;5216;54.602;18.356;2024-03-06T02:25:32;102271.75;;;7.80;66.31
10342;BME280;5216;54.602;18.356;2024-03-06T02:27:59;102275.38;;;7.79;65.93
10342;BME280;5216;54.602;18.356;2024-03-06T02:30:26;102271.75;;;7.80;66.18
10342;BME280;5216;54.602;18.356;2024-03-06T02:32:53;102274.53;;;7.78;66.09
10342;BME280;5216;54.602;18.356;2024-03-06T02:35:19;102278.03;;;7.79;65.88
10342;BME280;5216;54.602;18.356;2024-03-06T02:37:46;102275.38;;;7.79;65.79
10342;BME280;5216;54.602;18.356;2024-03-06T02:40:13;102271.94;;;7.77;65.76
10342;BME280;5216;54.602;18.356;2024-03-06T02:42:40;102271.94;;;7.77;65.92
10342;BME280;5216;54.602;18.356;2024-03-06T02:45:07;102271.09;;;7.76;65.55
10342;BME280;5216;54.602;18.356;2024-03-06T02:47:35;102270.22;;;7.76;65.67
10342;BME280;5216;54.602;18.356;2024-03-06T02:50:02;102270.22;;;7.76;65.70
10342;BME280;5216;54.602;18.356;2024-03-06T02:52:29;102277.41;;;7.74;65.30
10342;BME280;5216;54.602;18.356;2024-03-06T02:54:56;102269.59;;;7.71;65.90
10342;BME280;5216;54.602;18.356;2024-03-06T02:57:23;102277.41;;;7.74;65.78
10342;BME280;5216;54.602;18.356;2024-03-06T02:59:49;102273.97;;;7.72;65.50
10342;BME280;5216;54.602;18.356;2024-03-06T03:02:16;102275.69;;;7.73;66.01
10342;BME280;5216;54.602;18.356;2024-03-06T03:04:43;102284.59;;;7.72;65.84
10342;BME280;5216;54.602;18.356;2024-03-06T03:07:10;102288.16;;;7.72;65.56
10342;BME280;5216;54.602;18.356;2024-03-06T03:09:37;102291.66;;;7.73;65.41
10342;BME280;5216;54.602;18.356;2024-03-06T03:12:05;102296.16;;;7.72;65.52
10342;BME280;5216;54.602;18.356;2024-03-06T03:14:32;102296.94;;;7.74;65.54
10342;BME280;5216;54.602;18.356;2024-03-06T03:17:00;102293.38;;;7.74;65.09
10342;BME280;5216;54.602;18.356;2024-03-06T03:19:27;102302.31;;;7.73;65.50
10342;BME280;5216;54.602;18.356;2024-03-06T03:21:54;102302.31;;;7.73;65.38
10342;BME280;5216;54.602;18.356;2024-03-06T03:24:21;102295.25;;;7.72;65.39
10342;BME280;5216;54.602;18.356;2024-03-06T03:26:48;102298.88;;;7.71;65.17
10342;BME280;5216;54.602;18.356;2024-03-06T03:29:15;102309.53;;;7.71;65.23
10342;BME280;5216;54.602;18.356;2024-03-06T03:31:42;102302.47;;;7.70;64.91
10342;BME280;5216;54.602;18.356;2024-03-06T03:34:09;102314.06;;;7.69;64.84
10342;BME280;5216;54.602;18.356;2024-03-06T03:36:41;102323.91;;;7.67;64.96
10342;BME280;5216;54.602;18.356;2024-03-06T03:39:10;102322.19;;;7.66;64.93
10342;BME280;5216;54.602;18.356;2024-03-06T03:41:44;102324.84;;;7.66;65.13
10342;BME280;5216;54.602;18.356;2024-03-06T03:44:17;102324.06;;;7.64;64.74
10342;BME280;5216;54.602;18.356;2024-03-06T03:46:43;102337.47;;;7.63;65.03
10342;BME280;5216;54.602;18.356;2024-03-06T03:49:11;102345.34;;;7.64;64.86
10342;BME280;5216;54.602;18.356;2024-03-06T03:51:39;102348.97;;;7.63;65.17
10342;BME280;5216;54.602;18.356;2024-03-06T03:54:06;102348.00;;;7.64;64.77
10342;BME280;5216;54.602;18.356;2024-03-06T03:56:33;102351.56;;;7.65;64.88
10342;BME280;5216;54.602;18.356;2024-03-06T03:59:00;102349.81;;;7.64;65.19
10342;BME280;5216;54.602;18.356;2024-03-06T04:01:27;102356.78;;;7.66;64.62
10342;BME280;5216;54.602;18.356;2024-03-06T04:03:54;102347.09;;;7.65;64.96
10342;BME280;5216;54.602;18.356;2024-03-06T04:06:20;102348.78;;;7.66;65.00
10342;BME280;5216;54.602;18.356;2024-03-06T04:08:47;102363.06;;;7.65;64.87
10342;BME280;5216;54.602;18.356;2024-03-06T04:11:15;102355.13;;;7.64;64.71
10342;BME280;5216;54.602;18.356;2024-03-06T04:13:42;102361.47;;;7.61;64.55
10342;BME280;5216;54.602;18.356;2024-03-06T04:16:09;102358.88;;;7.60;64.52
10342;BME280;5216;54.602;18.356;2024-03-06T04:18:36;102359.75;;;7.60;64.41
10342;BME280;5216;54.602;18.356;2024-03-06T04:21:06;102364.22;;;7.60;64.64
10342;BME280;5216;54.602;18.356;2024-03-06T04:23:33;102354.41;;;7.60;64.48
10342;BME280;5216;54.602;18.356;2024-03-06T04:26:00;102361.63;;;7.58;64.64
10342;BME280;5216;54.602;18.356;2024-03-06T04:28:27;102358.88;;;7.60;63.89
10342;BME280;5216;54.602;18.356;2024-03-06T04:30:54;102359.75;;;7.60;64.23
10342;BME280;5216;54.602;18.356;2024-03-06T04:33:21;102367.72;;;7.60;64.06
10342;BME280;5216;54.602;18.356;2024-03-06T04:35:48;102361.63;;;7.58;63.74
10342;BME280;5216;54.602;18.356;2024-03-06T04:38:15;102382.84;;;7.60;63.83
10342;BME280;5216;54.602;18.356;2024-03-06T04:40:42;102367.81;;;7.59;63.81
10342;BME280;5216;54.602;18.356;2024-03-06T04:43:09;102376.66;;;7.59;63.59
10342;BME280;5216;54.602;18.356;2024-03-06T04:45:36;102371.34;;;7.59;63.84
10342;BME280;5216;54.602;18.356;2024-03-06T04:48:03;102367.91;;;7.57;63.43
10342;BME280;5216;54.602;18.356;2024-03-06T04:50:29;102371.41;;;7.58;63.39
10342;BME280;5216;54.602;18.356;2024-03-06T04:52:56;102375.00;;;7.57;63.67
10342;BME280;5216;54.602;18.356;2024-03-06T04:55:23;102371.47;;;7.56;63.58
10342;BME280;5216;54.602;18.356;2024-03-06T04:57:52;102391.97;;;7.54;63.45
10342;BME280;5216;54.602;18.356;2024-03-06T05:00:22;102385.94;;;7.51;62.92
10342;BME280;5216;54.602;18.356;2024-03-06T05:02:49;102388.41;;;7.55;63.17
10342;BME280;5216;54.602;18.356;2024-03-06T05:05:34;102394.63;;;7.54;62.99
10342;BME280;5216;54.602;18.356;2024-03-06T05:08:17;102386.81;;;7.51;63.35
10342;BME280;5216;54.602;18.356;2024-03-06T05:11:02;102400.19;;;7.50;63.25
10342;BME280;5216;54.602;18.356;2024-03-06T05:13:46;102401.22;;;7.47;63.07
10342;BME280;5216;54.602;18.356;2024-03-06T05:16:30;102396.03;;;7.44;62.98
10342;BME280;5216;54.602;18.356;2024-03-06T05:19:14;102400.41;;;7.45;63.22
10342;BME280;5216;54.602;18.356;2024-03-06T05:21:59;102404.06;;;7.43;63.06
10342;BME280;5216;54.602;18.356;2024-03-06T05:24:43;102407.63;;;7.43;63.46
10342;BME280;5216;54.602;18.356;2024-03-06T05:27:27;102404.22;;;7.40;63.24
10342;BME280;5216;54.602;18.356;2024-03-06T05:30:12;102409.63;;;7.38;63.07
10342;BME280;5216;54.602;18.356;2024-03-06T05:32:56;102412.28;;;7.38;63.40
10342;BME280;5216;54.602;18.356;2024-03-06T05:35:40;102415.88;;;7.37;63.39
10342;BME280;5216;54.602;18.356;2024-03-06T05:38:24;102423.09;;;7.35;62.61
10342;BME280;5216;54.602;18.356;2024-03-06T05:41:09;102425.09;;;7.31;62.84
10342;BME280;5216;54.602;18.356;2024-03-06T05:43:53;102432.41;;;7.26;62.98
10342;BME280;5216;54.602;18.356;2024-03-06T05:46:37;102430.81;;;7.22;62.88
10342;BME280;5216;54.602;18.356;2024-03-06T05:49:21;102430.03;;;7.20;63.15
10342;BME280;5216;54.602;18.356;2024-03-06T05:52:06;102428.44;;;7.16;63.13
10342;BME280;5216;54.602;18.356;2024-03-06T05:54:50;102425.78;;;7.16;62.86
10342;BME280;5216;54.602;18.356;2024-03-06T05:57:34;102422.34;;;7.14;63.08
10342;BME280;5216;54.602;18.356;2024-03-06T06:00:19;102432.97;;;7.14;63.09
10342;BME280;5216;54.602;18.356;2024-03-06T06:02:48;102434.84;;;7.12;62.75
10342;BME280;5216;54.602;18.356;2024-03-06T06:05:18;102434.84;;;7.12;63.29
10342;BME280;5216;54.602;18.356;2024-03-06T06:07:50;102442.81;;;7.12;63.33
10342;BME280;5216;54.602;18.356;2024-03-06T06:10:17;102442.91;;;7.10;62.92
10342;BME280;5216;54.602;18.356;2024-03-06T06:12:48;102445.63;;;7.09;62.71
10342;BME280;5216;54.602;18.356;2024-03-06T06:15:15;102449.22;;;7.08;63.06
10342;BME280;5216;54.602;18.356;2024-03-06T06:17:42;102449.28;;;7.06;62.70
10342;BME280;5216;54.602;18.356;2024-03-06T06:20:12;102457.25;;;7.06;62.71
10342;BME280;5216;54.602;18.356;2024-03-06T06:22:43;102454.53;;;7.08;62.99
10342;BME280;5216;54.602;18.356;2024-03-06T06:25:10;102462.44;;;7.09;62.94
10342;BME280;5216;54.602;18.356;2024-03-06T06:27:37;102460.66;;;7.10;63.11
10342;BME280;5216;54.602;18.356;2024-03-06T06:30:06;102465.97;;;7.10;63.28
10342;BME280;5216;54.602;18.356;2024-03-06T06:32:34;102468.50;;;7.13;63.22
10342;BME280;5216;54.602;18.356;2024-03-06T06:35:01;102473.75;;;7.14;63.21
10342;BME280;5216;54.602;18.356;2024-03-06T06:37:28;102482.59;;;7.15;63.18
10342;BME280;5216;54.602;18.356;2024-03-06T06:39:55;102473.66;;;7.16;63.24
10342;BME280;5216;54.602;18.356;2024-03-06T06:42:22;102483.31;;;7.18;63.07
10342;BME280;5216;54.602;18.356;2024-03-06T06:44:48;102485.19;;;7.16;62.74
10342;BME280;5216;54.602;18.356;2024-03-06T06:47:16;102491.13;;;7.21;62.95
10342;BME280;5216;54.602;18.356;2024-03-06T06:49:43;102489.31;;;7.22;62.89
10342;BME280;5216;54.602;18.356;2024-03-06T06:52:11;102479.56;;;7.22;63.10
10342;BME280;5216;54.602;18.356;2024-03-06T06:54:38;102494.66;;;7.22;63.04
10342;BME280;5216;54.602;18.356;2024-03-06T06:57:05;102488.41;;;7.23;62.57
10342;BME280;5216;54.602;18.356;2024-03-06T06:59:31;102497.31;;;7.22;62.55
10342;BME280;5216;54.602;18.356;2024-03-06T07:01:58;102507.03;;;7.23;62.61
10342;BME280;5216;54.602;18.356;2024-03-06T07:04:26;102497.25;;;7.23;62.61
10342;BME280;5216;54.602;18.356;2024-03-06T07:06:52;102496.38;;;7.23;62.72
10342;BME280;5216;54.602;18.356;2024-03-06T07:09:19;102502.63;;;7.22;62.24
10342;BME280;5216;54.602;18.356;2024-03-06T07:11:46;102501.69;;;7.23;62.81
10342;BME280;5216;54.602;18.356;2024-03-06T07:14:16;102514.06;;;7.24;62.53
10342;BME280;5216;54.602;18.356;2024-03-06T07:16:43;102522.97;;;7.23;62.32
10342;BME280;5216;54.602;18.356;2024-03-06T07:19:10;102516.72;;;7.24;62.22
10342;BME280;5216;54.602;18.356;2024-03-06T07:21:37;102519.38;;;7.24;62.09
10342;BME280;5216;54.602;18.356;2024-03-06T07:24:05;102514.94;;;7.24;62.44
10342;BME280;5216;54.602;18.356;2024-03-06T07:26:32;102520.25;;;7.24;61.52
10342;BME280;5216;54.602;18.356;2024-03-06T07:29:00;102513.13;;;7.25;61.69
10342;BME280;5216;54.602;18.356;2024-03-06T07:31:27;102513.19;;;7.23;61.70
10342;BME280;5216;54.602;18.356;2024-03-06T07:33:54;102514.06;;;7.24;61.31
10342;BME280;5216;54.602;18.356;2024-03-06T07:36:21;102514.22;;;7.21;61.40
10342;BME280;5216;54.602;18.356;2024-03-06T07:38:48;102521.34;;;7.20;61.29
10342;BME280;5216;54.602;18.356;2024-03-06T07:41:15;102529.38;;;7.19;61.96
10342;BME280;5216;54.602;18.356;2024-03-06T07:43:43;102524.00;;;7.20;61.82
10342;BME280;5216;54.602;18.356;2024-03-06T07:46:10;102539.94;;;7.20;61.79
10342;BME280;5216;54.602;18.356;2024-03-06T07:48:38;102532.88;;;7.19;61.47
10342;BME280;5216;54.602;18.356;2024-03-06T07:51:05;102534.53;;;7.22;61.45
10342;BME280;5216;54.602;18.356;2024-03-06T07:53:32;102535.31;;;7.24;61.35
10342;BME280;5216;54.602;18.356;2024-03-06T07:55:59;102544.25;;;7.23;61.51
10342;BME280;5216;54.602;18.356;2024-03-06T07:58:25;102546.91;;;7.23;61.46
10342;BME280;5216;54.602;18.356;2024-03-06T08:00:52;102539.66;;;7.26;61.66
10342;BME280;5216;54.602;18.356;2024-03-06T08:03:23;102557.28;;;7.29;61.28
10342;BME280;5216;54.602;18.356;2024-03-06T08:05:52;102554.59;;;7.29;61.41
10342;BME280;5216;54.602;18.356;2024-03-06T08:08:21;102559.94;;;7.29;60.95
10342;BME280;5216;54.602;18.356;2024-03-06T08:10:49;102573.16;;;7.30;61.17
10342;BME280;5216;54.602;18.356;2024-03-06T08:13:16;102561.53;;;7.32;60.69
10342;BME280;5216;54.602;18.356;2024-03-06T08:15:45;102561.41;;;7.35;60.66
10342;BME280;5216;54.602;18.356;2024-03-06T08:18:12;102571.03;;;7.38;61.13
10342;BME280;5216;54.602;18.356;2024-03-06T08:20:42;102567.34;;;7.40;61.02
10342;BME280;5216;54.602;18.356;2024-03-06T08:23:09;102564.56;;;7.43;60.54
10342;BME280;5216;54.602;18.356;2024-03-06T08:25:39;102569.88;;;7.43;60.51
10342;BME280;5216;54.602;18.356;2024-03-06T08:28:05;102575.22;;;7.43;60.85
10342;BME280;5216;54.602;18.356;2024-03-06T08:30:32;102573.41;;;7.44;60.57
10342;BME280;5216;54.602;18.356;2024-03-06T08:32:59;102569.78;;;7.45;60.84
10342;BME280;5216;54.602;18.356;2024-03-06T08:35:27;102571.47;;;7.47;60.70
10342;BME280;5216;54.602;18.356;2024-03-06T08:37:54;102587.44;;;7.47;60.43
10342;BME280;5216;54.602;18.356;2024-03-06T08:40:21;102583.81;;;7.48;60.31
10342;BME280;5216;54.602;18.356;2024-03-06T08:42:50;102590.88;;;7.49;60.42
10342;BME280;5216;54.602;18.356;2024-03-06T08:45:17;102578.50;;;7.48;60.44
10342;BME280;5216;54.602;18.356;2024-03-06T08:47:45;102592.59;;;7.50;60.58
10342;BME280;5216;54.602;18.356;2024-03-06T08:50:12;102583.69;;;7.51;60.54
10342;BME280;5216;54.602;18.356;2024-03-06T08:52:40;102596.06;;;7.52;60.27
10342;BME280;5216;54.602;18.356;2024-03-06T08:55:08;102598.78;;;7.51;60.13
10342;BME280;5216;54.602;18.356;2024-03-06T08:57:36;102597.00;;;7.51;59.78
10342;BME280;5216;54.602;18.356;2024-03-06T09:00:04;102596.06;;;7.52;59.85
10342;BME280;5216;54.602;18.356;2024-03-06T09:02:35;102605.78;;;7.53;60.00
10342;BME280;5216;54.602;18.356;2024-03-06T09:05:02;102612.81;;;7.54;59.74
10342;BME280;5216;54.602;18.356;2024-03-06T09:07:31;102601.25;;;7.55;59.62
10342;BME280;5216;54.602;18.356;2024-03-06T09:09:58;102605.63;;;7.56;59.57
10342;BME280;5216;54.602;18.356;2024-03-06T09:12:24;102607.44;;;7.56;59.46
10342;BME280;5216;54.602;18.356;2024-03-06T09:14:51;102613.75;;;7.53;59.14
10342;BME280;5216;54.602;18.356;2024-03-06T09:17:18;102619.09;;;7.53;59.85
10342;BME280;5216;54.602;18.356;2024-03-06T09:19:45;102622.66;;;7.52;59.68
10342;BME280;5216;54.602;18.356;2024-03-06T09:22:29;102628.84;;;7.53;59.86
10342;BME280;5216;54.602;18.356;2024-03-06T09:24:56;102624.53;;;7.50;59.39
10342;BME280;5216;54.602;18.356;2024-03-06T09:27:23;102620.94;;;7.51;59.85
10342;BME280;5216;54.602;18.356;2024-03-06T09:29:50;102623.44;;;7.54;59.75
10342;BME280;5216;54.602;18.356;2024-03-06T09:32:16;102624.25;;;7.56;59.87
10342;BME280;5216;54.602;18.356;2024-03-06T09:34:45;102621.53;;;7.58;59.79
10342;BME280;5216;54.602;18.356;2024-03-06T09:37:12;102623.28;;;7.59;59.73
10342;BME280;5216;54.602;18.356;2024-03-06T09:39:39;102629.28;;;7.62;59.62
10342;BME280;5216;54.602;18.356;2024-03-06T09:42:06;102624.84;;;7.63;59.70
10342;BME280;5216;54.602;18.356;2024-03-06T09:44:34;102621.31;;;7.62;60.28
10342;BME280;5216;54.602;18.356;2024-03-06T09:47:03;102638.06;;;7.64;60.05
10342;BME280;5216;54.602;18.356;2024-03-06T09:49:33;102630.97;;;7.65;59.86
10342;BME280;5216;54.602;18.356;2024-03-06T09:52:01;102639.81;;;7.65;59.69
10342;BME280;5216;54.602;18.356;2024-03-06T09:54:29;102633.69;;;7.63;59.41
10342;BME280;5216;54.602;18.356;2024-03-06T09:56:57;102638.16;;;7.63;59.54
10342;BME280;5216;54.602;18.356;2024-03-06T09:59:25;102639.94;;;7.62;59.72
10342;BME280;5216;54.602;18.356;2024-03-06T10:01:55;102639.94;;;7.62;59.67
10342;BME280;5216;54.602;18.356;2024-03-06T10:04:27;102634.63;;;7.62;59.68
10342;BME280;5216;54.602;18.356;2024-03-06T10:06:58;102629.28;;;7.62;59.94
10342;BME280;5216;54.602;18.356;2024-03-06T10:09:27;102637.38;;;7.61;59.91
10342;BME280;5216;54.602;18.356;2024-03-06T10:11:53;102642.47;;;7.65;59.92
10342;BME280;5216;54.602;18.356;2024-03-06T10:14:23;102636.34;;;7.63;59.41
10342;BME280;5216;54.602;18.356;2024-03-06T10:16:57;102642.47;;;7.65;59.64
10342;BME280;5216;54.602;18.356;2024-03-06T10:19:26;102652.16;;;7.66;59.24
10342;BME280;5216;54.602;18.356;2024-03-06T10:21:58;102637.94;;;7.67;59.85
10342;BME280;5216;54.602;18.356;2024-03-06T10:24:29;102658.28;;;7.68;59.32
10342;BME280;5216;54.602;18.356;2024-03-06T10:26:57;102649.31;;;7.70;59.52
10342;BME280;5216;54.602;18.356;2024-03-06T10:29:26;102659.06;;;7.70;59.12
10342;BME280;5216;54.602;18.356;2024-03-06T10:31:56;102657.38;;;7.69;59.04
10342;BME280;5216;54.602;18.356;2024-03-06T10:34:29;102655.50;;;7.71;59.08
10342;BME280;5216;54.602;18.356;2024-03-06T10:36:57;102654.66;;;7.70;58.84
10342;BME280;5216;54.602;18.356;2024-03-06T10:39:25;102660.66;;;7.74;58.57
10342;BME280;5216;54.602;18.356;2024-03-06T10:41:53;102652.63;;;7.75;58.84
10342;BME280;5216;54.602;18.356;2024-03-06T10:44:25;102653.47;;;7.76;58.86
10342;BME280;5216;54.602;18.356;2024-03-06T10:47:03;102665.81;;;7.78;58.88
10342;BME280;5216;54.602;18.356;2024-03-06T10:49:31;102659.47;;;7.81;58.75
10342;BME280;5216;54.602;18.356;2024-03-06T10:52:00;102661.13;;;7.83;59.01
10342;BME280;5216;54.602;18.356;2024-03-06T10:54:28;102654.94;;;7.83;58.98
10342;BME280;5216;54.602;18.356;2024-03-06T10:56:59;102658.41;;;7.85;59.10
10342;BME280;5216;54.602;18.356;2024-03-06T10:59:27;102663.66;;;7.86;59.20
10342;BME280;5216;54.602;18.356;2024-03-06T11:01:58;102671.41;;;7.91;58.94
10342;BME280;5216;54.602;18.356;2024-03-06T11:04:29;102662.56;;;7.90;59.07
10342;BME280;5216;54.602;18.356;2024-03-06T11:06:57;102666.03;;;7.92;58.90
10342;BME280;5216;54.602;18.356;2024-03-06T11:09:38;102664.16;;;7.94;58.61
10342;BME280;5216;54.602;18.356;2024-03-06T11:12:06;102665.00;;;7.95;58.87
10342;BME280;5216;54.602;18.356;2024-03-06T11:14:37;102664.09;;;7.96;58.34
10342;BME280;5216;54.602;18.356;2024-03-06T11:17:10;102659.69;;;7.95;58.36
10342;BME280;5216;54.602;18.356;2024-03-06T11:28:21;102663.03;;;8.00;58.47
10342;BME280;5216;54.602;18.356;2024-03-06T11:30:58;102667.34;;;8.02;58.16
10342;BME280;5216;54.602;18.356;2024-03-06T11:33:41;102662.72;;;8.06;58.27
10342;BME280;5216;54.602;18.356;2024-03-06T11:38:59;102672.19;;;8.12;58.08
10342;BME280;5216;54.602;18.356;2024-03-06T11:44:02;102669.03;;;8.23;58.10
10342;BME280;5216;54.602;18.356;2024-03-06T11:46:44;102668.63;;;8.30;58.13
10342;BME280;5216;54.602;18.356;2024-03-06T11:49:19;102673.63;;;8.38;57.89
10342;BME280;5216;54.602;18.356;2024-03-06T11:51:56;102671.38;;;8.47;58.44
10342;BME280;5216;54.602;18.356;2024-03-06T11:54:24;102654.34;;;8.68;58.30
10342;BME280;5216;54.602;18.356;2024-03-06T11:56:56;102667.97;;;8.97;58.49
10342;BME280;5216;54.602;18.356;2024-03-06T11:59:32;102662.69;;;9.29;58.43
10342;BME280;5216;54.602;18.356;2024-03-06T12:02:01;102670.69;;;9.62;57.80
10342;BME280;5216;54.602;18.356;2024-03-06T12:04:30;102670.69;;;9.94;57.11
10342;BME280;5216;54.602;18.356;2024-03-06T12:06:58;102672.56;;;10.25;55.95
10342;BME280;5216;54.602;18.356;2024-03-06T12:09:38;102674.13;;;10.59;56.00
10342;BME280;5216;54.602;18.356;2024-03-06T12:12:09;102677.53;;;10.92;55.56
10342;BME280;5216;54.602;18.356;2024-03-06T12:14:37;102675.53;;;11.24;54.94
10342;BME280;5216;54.602;18.356;2024-03-06T12:17:11;102668.56;;;11.51;53.34
10342;BME280;5216;54.602;18.356;2024-03-06T12:19:42;102673.75;;;11.81;53.06
10342;BME280;5216;54.602;18.356;2024-03-06T12:22:10;102666.97;;;12.17;52.83
10342;BME280;5216;54.602;18.356;2024-03-06T12:24:37;102673.31;;;12.56;52.19
10342;BME280;5216;54.602;18.356;2024-03-06T12:27:06;102669.75;;;12.96;50.54
10342;BME280;5216;54.602;18.356;2024-03-06T12:29:35;102661.69;;;13.34;49.59
10342;BME280;5216;54.602;18.356;2024-03-06T12:32:03;102666.13;;;13.60;47.78
10342;BME280;5216;54.602;18.356;2024-03-06T12:34:30;102668.38;;;13.91;47.63
10342;BME280;5216;54.602;18.356;2024-03-06T12:37:10;102674.53;;;14.17;46.74
10342;BME280;5216;54.602;18.356;2024-03-06T12:39:38;102669.50;;;14.00;44.58
10342;BME280;5216;54.602;18.356;2024-03-06T12:42:09;102669.44;;;13.39;44.08
10342;BME280;5216;54.602;18.356;2024-03-06T12:44:36;102674.88;;;12.87;44.63
10342;BME280;5216;54.602;18.356;2024-03-06T12:47:03;102676.31;;;12.38;45.21
10342;BME280;5216;54.602;18.356;2024-03-06T12:49:30;102672.81;;;11.96;46.38
10342;BME280;5216;54.602;18.356;2024-03-06T12:51:56;102674.91;;;11.64;47.49
10342;BME280;5216;54.602;18.356;2024-03-06T12:54:26;102672.91;;;11.38;48.91
10342;BME280;5216;54.602;18.356;2024-03-06T12:56:53;102683.75;;;11.21;49.06
10342;BME280;5216;54.602;18.356;2024-03-06T12:59:20;102682.75;;;11.08;49.82
10342;BME280;5216;54.602;18.356;2024-03-06T13:01:47;102678.88;;;10.99;49.86
10342;BME280;5216;54.602;18.356;2024-03-06T13:04:14;102677.53;;;10.92;50.12
10342;BME280;5216;54.602;18.356;2024-03-06T13:06:40;102676.84;;;10.88;50.22
10342;BME280;5216;54.602;18.356;2024-03-06T13:09:07;102677.78;;;10.87;51.17
10342;BME280;5216;54.602;18.356;2024-03-06T13:11:34;102684.97;;;10.87;50.98
10342;BME280;5216;54.602;18.356;2024-03-06T13:14:01;102679.59;;;10.87;51.56
10342;BME280;5216;54.602;18.356;2024-03-06T13:16:27;102684.03;;;10.88;51.28
10342;BME280;5216;54.602;18.356;2024-03-06T13:18:54;102684.03;;;10.88;51.03
10342;BME280;5216;54.602;18.356;2024-03-06T13:21:23;102676.00;;;10.88;51.52
10342;BME280;5216;54.602;18.356;2024-03-06T13:23:50;102676.16;;;10.85;50.89